Archival Weather

Chicago O'Hare International

Chicago, Illinois (KORD)

Report from: Sunday, November 19, 2023 6:51 PM CST
Current time: Monday, July 22, 2024 5:12 AM CDT

Current weather – Weather history – Daily summaries
Weather forecast

Temperature7.8°C (46.0°F)
Wind chill5.5°C (41.9°F)
Dew point3.3°C (37.9°F)
Winds 7 kts (3.6 m/s, 8.1 mph) East-Northeast (70°)
Visibility10 mi. (16.1 km)
Clouds Few clouds 18,000 ft. (5,486 m)
Ceiling: Broken clouds 25,000 ft. (7,620 m)
Altimeter30.08 in.Hg (1019 mB)
Relative humidity73 %
Density altitude-942 ft. (-287 m)
Sea-level pressure101.9 kPa (1019 mB, 30.09 in.Hg)
Remarks Automated weather observing station with precipitation discriminator
Flight conditions Visual Meteorological Conditions
Raw dataKORD 200051Z 07007KT 10SM FEW180 BKN250 08/03 A3008 RMK AO2 SLP189 T00780033
An error has occurred. This application may no longer respond until reloaded. Reload 🗙